EDLW/DTM METAR and TAF weather

Enter ICAO airport designator
Station Type Date Time Source
EDLW METAR 2020/03/31 23:20 UTC NOAA

EDLW 312320Z AUTO 15005KT 9999 // NCD 01/M05 Q1026


Station Type Date Time Source
EDLW Decoded METAR 2020/03/31 23:20 UTC NOAA

Dortmund / Wickede, Germany (EDLW) 51-31N 007-37E
Mar 31, 2020 - 07:20 PM EDT / 2020.03.31 2320 UTC
Wind: from the SSE (150 degrees) at 6 MPH (5 KT):0
Visibility: greater than 7 mile(s):0
Temperature: 33 F (1 C)
Windchill: 26 F (-3 C):1
Dew Point: 23 F (-5 C)
Relative Humidity: 64%
Pressure (altimeter): 30.30 in. Hg (1026 hPa)
ob: EDLW 312320Z AUTO 15005KT 9999 // NCD 01/M05 Q1026
cycle: 23

Station Type Date Time Source
EDLW TAF 2020/03/31 20:58 UTC NOAA

TAF EDLW 312050Z 3120/0118 CNL

Example: see airport list